createdAt,value
2018-02-11T00:01:35.437Z,15.70
2018-02-11T00:04:03.018Z,16.00
2018-02-11T00:06:30.591Z,14.93
2018-02-11T00:08:58.198Z,15.90
2018-02-11T00:11:25.740Z,14.23
2018-02-11T00:13:53.285Z,14.50
2018-02-11T00:16:21.811Z,15.10
2018-02-11T00:18:49.345Z,15.03
2018-02-11T00:21:16.943Z,15.10
2018-02-11T00:23:44.476Z,13.83
2018-02-11T00:26:12.099Z,14.90
2018-02-11T00:28:39.656Z,14.85
2018-02-11T00:31:07.997Z,14.20
2018-02-11T00:33:35.581Z,15.07
2018-02-11T00:36:03.473Z,15.07
2018-02-11T00:38:31.076Z,14.37
2018-02-11T00:40:58.684Z,15.52
2018-02-11T00:43:26.270Z,14.27
2018-02-11T00:45:53.854Z,15.68
2018-02-11T00:48:21.407Z,14.70
2018-02-11T00:50:49.036Z,14.40
2018-02-11T00:53:16.607Z,15.80
2018-02-11T00:55:44.184Z,15.73
2018-02-11T00:58:11.758Z,13.50
2018-02-11T01:00:39.369Z,16.00
2018-02-11T01:03:06.957Z,15.53
2018-02-11T01:05:35.445Z,15.37
2018-02-11T01:08:03.030Z,14.10
2018-02-11T01:10:30.621Z,14.60
2018-02-11T01:12:58.182Z,16.02
2018-02-11T01:15:26.563Z,14.80
2018-02-11T01:17:54.126Z,16.70
2018-02-11T01:20:22.431Z,15.50
2018-02-11T01:22:50.022Z,15.25
2018-02-11T01:25:17.576Z,14.67
2018-02-11T01:27:45.942Z,15.20
2018-02-11T01:30:13.487Z,14.97
2018-02-11T01:32:41.095Z,14.00
2018-02-11T01:35:08.663Z,13.25
2018-02-11T01:37:36.256Z,14.27
2018-02-11T01:40:03.851Z,13.30
2018-02-11T01:42:31.405Z,13.40
2018-02-11T01:44:58.983Z,14.20
2018-02-11T01:47:26.533Z,13.70
2018-02-11T01:50:06.806Z,13.35
2018-02-11T01:52:34.367Z,13.40
2018-02-11T01:55:01.921Z,14.57
2018-02-11T01:57:30.280Z,13.23
2018-02-11T01:59:57.871Z,13.33
2018-02-11T02:02:25.471Z,12.82
2018-02-11T02:04:53.085Z,13.52
2018-02-11T02:07:20.636Z,12.82
2018-02-11T02:09:48.999Z,13.50
2018-02-11T02:12:16.572Z,12.85
2018-02-11T02:14:44.190Z,12.75
2018-02-11T02:17:12.500Z,12.88
2018-02-11T02:19:40.870Z,13.17
2018-02-11T02:22:08.494Z,12.50
2018-02-11T02:24:36.091Z,13.73
2018-02-11T02:27:04.444Z,13.30
2018-02-11T02:29:32.007Z,13.38
2018-02-11T02:31:59.654Z,13.73
2018-02-11T02:34:28.047Z,13.07
2018-02-11T02:36:55.670Z,13.15
2018-02-11T02:39:23.242Z,14.00
2018-02-11T02:41:50.801Z,12.48
2018-02-11T02:44:18.418Z,12.00
2018-02-11T02:46:46.754Z,13.38
2018-02-11T02:49:15.133Z,13.52
2018-02-11T02:51:42.703Z,12.90
2018-02-11T02:54:11.033Z,12.98
2018-02-11T02:56:39.376Z,13.40
2018-02-11T02:59:07.704Z,12.68
2018-02-11T03:01:35.415Z,12.43
2018-02-11T03:04:03.000Z,12.30
2018-02-11T03:06:31.347Z,12.70
2018-02-11T03:08:58.937Z,13.25
2018-02-11T03:11:26.494Z,13.93
2018-02-11T03:13:54.083Z,13.57
2018-02-11T03:16:21.656Z,12.93
2018-02-11T03:18:49.958Z,12.88
2018-02-11T03:21:18.341Z,12.90
2018-02-11T03:23:45.891Z,12.55
2018-02-11T03:26:14.240Z,13.48
2018-02-11T03:28:42.542Z,11.70
2018-02-11T03:31:10.150Z,13.20
2018-02-11T03:33:37.696Z,12.70
2018-02-11T03:36:31.162Z,13.62
2018-02-11T03:38:58.758Z,12.60
2018-02-11T03:41:27.089Z,13.05
2018-02-11T03:43:55.486Z,13.77
2018-02-11T03:46:23.061Z,12.77
2018-02-11T03:48:50.651Z,12.15
2018-02-11T03:51:18.202Z,11.70
2018-02-11T03:53:46.528Z,12.13
2018-02-11T03:56:14.881Z,11.70
2018-02-11T03:58:42.445Z,12.45
2018-02-11T04:01:10.095Z,11.80
2018-02-11T04:03:37.640Z,10.93
2018-02-11T04:06:05.433Z,12.02
2018-02-11T04:08:32.994Z,12.23
2018-02-11T04:11:00.634Z,12.25
2018-02-11T04:13:28.306Z,11.48
2018-02-11T04:15:55.865Z,10.80
2018-02-11T04:18:23.462Z,11.50
2018-02-11T04:20:51.031Z,11.50
2018-02-11T04:23:18.667Z,10.77
2018-02-11T04:25:47.042Z,11.88
2018-02-11T04:28:14.620Z,10.80
2018-02-11T04:30:42.165Z,9.80
2018-02-11T04:33:09.747Z,10.65
2018-02-11T04:35:37.286Z,10.15
2018-02-11T04:38:05.630Z,10.30
2018-02-11T04:40:33.865Z,10.15
2018-02-11T04:43:01.417Z,10.50
2018-02-11T04:45:29.000Z,9.65
2018-02-11T04:47:56.570Z,10.10
2018-02-11T04:50:24.220Z,10.13
2018-02-11T04:52:51.778Z,8.90
2018-02-11T04:55:19.344Z,9.25
2018-02-11T04:57:47.689Z,9.50
2018-02-11T05:00:15.313Z,10.38
2018-02-11T05:02:43.682Z,9.63
2018-02-11T05:05:11.235Z,9.90
2018-02-11T05:07:38.772Z,9.10
2018-02-11T05:10:06.364Z,10.55
2018-02-11T05:12:33.910Z,9.45
2018-02-11T05:15:01.437Z,10.63
2018-02-11T05:17:29.072Z,9.50
2018-02-11T05:19:56.655Z,9.40
2018-02-11T05:22:24.270Z,8.80
2018-02-11T05:24:51.799Z,10.02
2018-02-11T05:27:20.174Z,10.38
2018-02-11T05:29:47.720Z,9.65
2018-02-11T05:32:15.264Z,9.60
2018-02-11T05:34:42.826Z,10.05
2018-02-11T05:37:10.393Z,9.70
2018-02-11T05:39:37.994Z,10.63
2018-02-11T05:42:06.756Z,10.75
2018-02-11T05:44:35.279Z,10.43
2018-02-11T05:47:02.855Z,9.73
2018-02-11T05:49:30.441Z,10.65
2018-02-11T05:51:58.176Z,10.85
2018-02-11T05:54:25.725Z,11.48
2018-02-11T05:56:54.040Z,11.35
2018-02-11T05:59:21.853Z,11.52
2018-02-11T06:01:50.191Z,11.25
2018-02-11T06:04:17.747Z,11.63
2018-02-11T06:06:45.882Z,11.93
2018-02-11T06:09:13.446Z,12.48
2018-02-11T06:11:40.988Z,12.23
2018-02-11T06:14:09.536Z,11.82
2018-02-11T06:16:37.062Z,12.37
2018-02-11T06:19:05.433Z,12.50
2018-02-11T06:21:33.868Z,12.65
2018-02-11T06:24:01.423Z,13.43
2018-02-11T06:26:29.088Z,12.77
2018-02-11T06:28:56.854Z,13.45
2018-02-11T06:31:25.169Z,13.65
2018-02-11T06:33:52.710Z,13.10
2018-02-11T06:36:21.133Z,12.80
2018-02-11T06:38:48.692Z,13.02
2018-02-11T06:41:16.232Z,14.38
2018-02-11T06:43:43.992Z,12.57
2018-02-11T06:46:12.321Z,12.63
2018-02-11T06:48:39.875Z,14.20
2018-02-11T06:51:08.518Z,13.75
2018-02-11T06:53:36.065Z,13.65
2018-02-11T06:56:03.660Z,12.88
2018-02-11T06:58:31.228Z,12.80
2018-02-11T07:00:58.801Z,12.95
2018-02-11T07:03:26.373Z,14.20
2018-02-11T07:05:53.930Z,12.63
2018-02-11T07:08:21.528Z,13.07
2018-02-11T07:10:49.970Z,12.75
2018-02-11T07:13:17.527Z,12.80
2018-02-11T07:15:45.113Z,11.77
2018-02-11T07:18:12.674Z,12.27
2018-02-11T07:20:40.273Z,12.57
2018-02-11T07:23:07.810Z,12.32
2018-02-11T07:25:35.645Z,12.90
2018-02-11T07:28:03.182Z,13.40
2018-02-11T07:30:30.731Z,12.20
2018-02-11T07:32:58.313Z,12.50
2018-02-11T07:35:25.900Z,13.93
2018-02-11T07:37:53.559Z,12.80
2018-02-11T07:40:21.159Z,12.90
2018-02-11T07:42:48.828Z,12.87
2018-02-11T07:45:16.375Z,12.67
2018-02-11T07:47:43.997Z,12.20
2018-02-11T07:50:12.346Z,11.37
2018-02-11T07:52:40.000Z,12.83
2018-02-11T07:55:07.664Z,13.53
2018-02-11T07:57:36.958Z,13.20
2018-02-11T08:00:04.519Z,12.30
2018-02-11T08:02:32.867Z,13.37
2018-02-11T08:05:00.417Z,13.10
2018-02-11T08:07:28.097Z,12.43
2018-02-11T08:09:55.714Z,13.60
2018-02-11T08:12:23.284Z,13.07
2018-02-11T08:14:50.880Z,14.03
2018-02-11T08:17:18.457Z,14.00
2018-02-11T08:19:46.057Z,13.73
2018-02-11T08:22:13.670Z,14.30
2018-02-11T08:24:41.207Z,14.03
2018-02-11T08:27:08.779Z,16.27
2018-02-11T08:29:36.435Z,14.83
2018-02-11T08:32:04.015Z,15.47
2018-02-11T08:37:24.599Z,18.20
2018-02-11T08:39:52.964Z,17.87
2018-02-11T08:42:20.539Z,17.77
2018-02-11T08:44:48.149Z,15.37
2018-02-11T08:47:16.464Z,14.67
2018-02-11T08:49:44.811Z,20.60
2018-02-11T08:52:12.424Z,16.83
2018-02-11T08:54:40.063Z,15.50
2018-02-11T08:57:08.389Z,15.77
2018-02-11T08:59:36.987Z,15.63
2018-02-11T09:02:04.555Z,18.87
2018-02-11T09:04:32.100Z,17.53
2018-02-11T09:07:00.456Z,16.40
2018-02-11T09:09:28.069Z,18.73
2018-02-11T09:11:56.410Z,15.53
2018-02-11T09:14:24.746Z,14.43
2018-02-11T09:16:52.347Z,15.77
2018-02-11T09:19:20.644Z,14.63
2018-02-11T09:21:48.238Z,13.97
2018-02-11T09:24:15.832Z,14.43
2018-02-11T09:26:43.379Z,14.60
2018-02-11T09:29:10.960Z,17.60
2018-02-11T09:31:38.503Z,15.07
2018-02-11T09:34:06.134Z,17.20
2018-02-11T09:36:33.699Z,15.80
2018-02-11T09:39:01.239Z,17.30
2018-02-11T09:41:28.908Z,13.23
2018-02-11T09:43:56.461Z,13.70
2018-02-11T09:46:24.069Z,14.93
2018-02-11T09:48:51.615Z,15.03
2018-02-11T09:51:19.214Z,15.10
2018-02-11T09:53:46.777Z,14.47
2018-02-11T09:56:15.178Z,16.60
2018-02-11T09:58:42.852Z,14.87
2018-02-11T10:01:10.444Z,13.37
2018-02-11T10:03:38.023Z,18.87
2018-02-11T10:06:06.137Z,15.30
2018-02-11T10:08:33.718Z,14.63
2018-02-11T10:11:01.259Z,13.20
2018-02-11T10:13:28.982Z,15.03
2018-02-11T10:15:56.656Z,12.73
2018-02-11T10:18:24.226Z,16.77
2018-02-11T10:20:51.834Z,13.27
2018-02-11T10:23:19.446Z,14.93
2018-02-11T10:25:47.051Z,13.90
2018-02-11T10:28:15.390Z,14.30
2018-02-11T10:30:42.991Z,13.57
2018-02-11T10:33:11.360Z,15.50
2018-02-11T10:35:39.014Z,16.37
2018-02-11T10:38:07.336Z,14.33
2018-02-11T10:40:36.688Z,14.63
2018-02-11T10:43:04.246Z,13.20
2018-02-11T10:45:31.832Z,11.53
2018-02-11T10:48:00.136Z,14.57
2018-02-11T10:50:28.497Z,14.13
2018-02-11T10:52:56.136Z,13.77
2018-02-11T10:55:23.701Z,13.97
2018-02-11T10:57:52.209Z,14.93
2018-02-11T11:00:19.812Z,15.07
2018-02-11T11:02:47.416Z,14.00
2018-02-11T11:05:15.081Z,15.10
2018-02-11T11:07:42.677Z,16.10
2018-02-11T11:10:10.285Z,14.63
2018-02-11T11:12:38.608Z,15.70
2018-02-11T11:15:06.990Z,12.60
2018-02-11T11:17:34.541Z,12.97
2018-02-11T11:20:02.950Z,14.20
2018-02-11T11:22:30.583Z,15.90
2018-02-11T11:24:58.186Z,14.00
2018-02-11T11:27:25.735Z,13.47
2018-02-11T11:29:53.297Z,13.00
2018-02-11T11:32:21.647Z,13.50
2018-02-11T11:34:49.994Z,14.30
2018-02-11T11:37:17.591Z,12.83
2018-02-11T11:39:46.021Z,11.20
2018-02-11T11:42:13.613Z,12.83
2018-02-11T11:44:41.272Z,12.00
2018-02-11T11:47:09.853Z,11.60
2018-02-11T11:49:37.456Z,12.60
2018-02-11T11:52:05.878Z,11.43
2018-02-11T11:54:33.487Z,11.40
2018-02-11T11:57:01.856Z,11.63
2018-02-11T11:59:29.563Z,11.00
2018-02-11T12:01:57.947Z,10.70
2018-02-11T12:04:25.616Z,11.03
2018-02-11T12:06:53.915Z,11.60
2018-02-11T12:09:21.468Z,9.60
2018-02-11T12:11:49.085Z,10.60
2018-02-11T12:14:16.712Z,10.50
2018-02-11T12:16:44.298Z,9.83
2018-02-11T12:19:11.832Z,9.80
2018-02-11T12:21:39.415Z,9.77
2018-02-11T12:24:07.709Z,10.23
2018-02-11T12:26:35.564Z,9.63
2018-02-11T12:29:03.906Z,13.17
2018-02-11T12:31:31.475Z,11.07
2018-02-11T12:33:59.088Z,10.50
2018-02-11T12:36:26.660Z,11.27
2018-02-11T12:39:01.376Z,12.70
2018-02-11T12:41:28.950Z,12.17
2018-02-11T12:43:58.775Z,12.40
2018-02-11T12:46:26.426Z,11.90
2018-02-11T12:48:54.059Z,11.60
2018-02-11T12:51:21.657Z,11.57
2018-02-11T12:53:50.204Z,22.57
2018-02-11T12:56:18.524Z,12.90
2018-02-11T12:58:46.122Z,13.10
2018-02-11T13:01:13.697Z,11.50
2018-02-11T13:03:41.259Z,12.73
2018-02-11T13:06:08.858Z,12.17
2018-02-11T13:08:36.421Z,12.87
2018-02-11T13:11:04.029Z,11.60
2018-02-11T13:13:31.606Z,12.60
2018-02-11T13:15:59.212Z,12.20
2018-02-11T13:18:26.773Z,11.37
2018-02-11T13:20:54.329Z,11.17
2018-02-11T13:23:22.713Z,11.63
2018-02-11T13:25:50.384Z,10.43
2018-02-11T13:28:18.756Z,12.80
2018-02-11T13:30:46.418Z,12.20
2018-02-11T13:33:13.971Z,11.70
2018-02-11T13:35:41.600Z,11.43
2018-02-11T13:38:09.995Z,11.67
2018-02-11T13:40:37.548Z,12.43
2018-02-11T13:43:06.338Z,11.93
2018-02-11T13:45:34.324Z,11.63
2018-02-11T13:48:02.700Z,10.73
2018-02-11T13:50:30.325Z,11.37
2018-02-11T13:52:58.862Z,10.53
2018-02-11T13:55:26.514Z,10.53
2018-02-11T13:57:54.126Z,9.60
2018-02-11T14:00:21.845Z,10.93
2018-02-11T14:02:49.469Z,10.60
2018-02-11T14:05:17.933Z,10.50
2018-02-11T14:07:46.333Z,12.30
2018-02-11T14:10:15.847Z,12.17
2018-02-11T14:12:43.468Z,11.50
2018-02-11T14:15:11.144Z,12.40
2018-02-11T14:17:38.798Z,16.27
2018-02-11T14:20:06.430Z,12.07
2018-02-11T14:22:34.818Z,11.97
2018-02-11T14:25:02.508Z,10.43
2018-02-11T14:27:32.186Z,11.93
2018-02-11T14:29:59.772Z,12.10
2018-02-11T14:32:27.381Z,12.30
2018-02-11T14:34:55.011Z,12.37
2018-02-11T14:37:22.646Z,14.87
2018-02-11T14:39:50.219Z,13.13
2018-02-11T14:42:17.798Z,12.67
2018-02-11T14:44:45.331Z,13.67
2018-02-11T14:47:12.913Z,13.07
2018-02-11T14:49:41.265Z,13.97
2018-02-11T14:52:09.788Z,11.90
2018-02-11T14:54:38.160Z,12.30
2018-02-11T14:57:06.477Z,13.30
2018-02-11T14:59:34.790Z,13.70
2018-02-11T15:02:02.372Z,14.63
2018-02-11T15:04:29.969Z,15.80
2018-02-11T15:06:58.263Z,14.50
2018-02-11T15:09:25.863Z,13.83
2018-02-11T15:11:53.435Z,14.40
2018-02-11T15:14:21.764Z,13.67
2018-02-11T15:16:49.425Z,13.67
2018-02-11T15:19:17.088Z,13.80
2018-02-11T15:21:44.676Z,12.83
2018-02-11T15:24:12.225Z,12.50
2018-02-11T15:26:39.817Z,12.30
2018-02-11T15:29:09.295Z,12.30
2018-02-11T15:31:37.759Z,10.33
2018-02-11T15:34:05.353Z,11.53
2018-02-11T15:36:33.738Z,11.27
2018-02-11T15:39:01.378Z,12.50
2018-02-11T15:41:29.011Z,13.63
2018-02-11T15:43:56.627Z,13.80
2018-02-11T15:46:24.188Z,13.50
2018-02-11T15:48:51.873Z,12.60
2018-02-11T15:51:19.505Z,14.67
2018-02-11T15:53:47.092Z,13.80
2018-02-11T15:56:14.707Z,13.93
2018-02-11T15:58:43.061Z,15.07
2018-02-11T16:01:11.436Z,14.73
2018-02-11T16:03:38.970Z,15.23
2018-02-11T16:06:07.489Z,15.33
2018-02-11T16:08:35.990Z,13.93
2018-02-11T16:11:03.661Z,13.80
2018-02-11T16:13:31.314Z,13.80
2018-02-11T16:15:58.950Z,13.87
2018-02-11T16:18:26.521Z,14.50
2018-02-11T16:20:54.120Z,13.03
2018-02-11T16:23:21.863Z,14.40
2018-02-11T16:25:49.619Z,14.67
2018-02-11T16:28:17.411Z,13.90
2018-02-11T16:30:45.147Z,14.60
2018-02-11T16:33:14.787Z,13.37
2018-02-11T16:35:43.669Z,14.27
2018-02-11T16:38:11.607Z,14.57
2018-02-11T16:40:43.518Z,14.57
2018-02-11T16:43:11.323Z,13.53
2018-02-11T16:45:38.969Z,13.43
2018-02-11T16:48:08.051Z,13.67
2018-02-11T16:50:36.632Z,13.70
2018-02-11T16:53:04.277Z,13.60
2018-02-11T16:55:31.877Z,12.70
2018-02-11T16:57:59.614Z,13.90
2018-02-11T17:00:27.973Z,14.33
2018-02-11T17:02:55.527Z,12.77
2018-02-11T17:05:24.029Z,12.50
2018-02-11T17:07:52.442Z,12.70
2018-02-11T17:10:20.059Z,12.87
2018-02-11T17:12:47.690Z,13.07
2018-02-11T17:15:15.254Z,12.27
2018-02-11T17:17:42.870Z,13.33
2018-02-11T17:20:10.559Z,11.77
2018-02-11T17:22:38.170Z,10.80
2018-02-11T17:25:06.006Z,10.87
2018-02-11T17:27:33.618Z,10.30
2018-02-11T17:30:01.244Z,10.73
2018-02-11T17:32:28.906Z,11.37
2018-02-11T17:34:56.719Z,11.73
2018-02-11T17:37:25.168Z,10.87
2018-02-11T17:39:53.559Z,10.17
2018-02-11T17:42:21.232Z,10.10
2018-02-11T17:44:49.991Z,9.50
2018-02-11T17:47:17.266Z,9.53
2018-02-11T17:49:44.984Z,9.27
2018-02-11T17:52:12.542Z,9.47
2018-02-11T17:54:40.099Z,8.97
2018-02-11T17:57:07.856Z,8.90
2018-02-11T17:59:36.833Z,9.20
2018-02-11T18:02:04.421Z,9.10
2018-02-11T18:04:32.786Z,10.87
2018-02-11T18:07:00.428Z,9.87
2018-02-11T18:09:28.092Z,9.90
2018-02-11T18:11:55.715Z,9.37
2018-02-11T18:14:23.324Z,9.83
2018-02-11T18:16:50.884Z,8.20
2018-02-11T18:19:18.465Z,8.30
2018-02-11T18:21:46.305Z,8.47
2018-02-11T18:24:13.872Z,8.47
2018-02-11T18:26:41.516Z,8.50
2018-02-11T18:29:09.827Z,9.27
2018-02-11T18:31:37.613Z,9.53
2018-02-11T18:34:07.030Z,9.57
2018-02-11T18:36:34.930Z,8.70
2018-02-11T18:39:02.516Z,8.90
2018-02-11T18:41:30.232Z,9.07
2018-02-11T18:43:58.105Z,10.33
2018-02-11T18:46:25.798Z,9.33
2018-02-11T18:48:53.449Z,9.43
2018-02-11T18:51:22.103Z,9.90
2018-02-11T18:53:49.738Z,11.37
2018-02-11T18:56:18.084Z,11.83
2018-02-11T18:58:45.854Z,12.30
2018-02-11T19:01:13.482Z,14.53
2018-02-11T19:03:41.116Z,12.23
2018-02-11T19:06:08.883Z,12.53
2018-02-11T19:08:36.531Z,12.40
2018-02-11T19:11:04.898Z,11.17
2018-02-11T19:13:33.845Z,11.80
2018-02-11T19:16:02.207Z,12.70
2018-02-11T19:18:29.795Z,12.37
2018-02-11T19:20:58.313Z,12.90
2018-02-11T19:23:25.883Z,12.53
2018-02-11T19:25:53.456Z,12.87
2018-02-11T19:28:21.175Z,13.67
2018-02-11T19:30:48.775Z,13.90
2018-02-11T19:33:16.336Z,11.43
2018-02-11T19:35:44.758Z,12.23
2018-02-11T19:38:12.322Z,14.50
2018-02-11T19:40:40.680Z,12.23
2018-02-11T19:43:08.353Z,12.50
2018-02-11T19:45:35.913Z,12.27
2018-02-11T19:48:03.520Z,13.40
2018-02-11T19:50:31.234Z,13.70
2018-02-11T19:52:58.779Z,12.90
2018-02-11T19:55:26.315Z,13.70
2018-02-11T19:57:54.076Z,12.40
2018-02-11T20:00:22.400Z,13.10
2018-02-11T20:02:49.976Z,12.30
2018-02-11T20:05:18.436Z,13.40
2018-02-11T20:07:46.736Z,13.27
2018-02-11T20:10:14.306Z,12.20
2018-02-11T20:12:42.026Z,11.60
2018-02-11T20:15:09.706Z,12.63
2018-02-11T20:17:37.791Z,12.53
2018-02-11T20:20:06.846Z,12.27
2018-02-11T20:22:34.392Z,12.17
2018-02-11T20:25:01.943Z,12.23
2018-02-11T20:27:29.693Z,13.10
2018-02-11T20:29:57.229Z,13.00
2018-02-11T20:32:24.788Z,12.70
2018-02-11T20:34:52.465Z,13.30
2018-02-11T20:37:20.008Z,13.00
2018-02-11T20:39:47.557Z,14.80
2018-02-11T20:42:15.245Z,15.00
2018-02-11T20:44:42.797Z,14.00
2018-02-11T20:47:10.350Z,13.17
2018-02-11T20:49:38.567Z,13.10
2018-02-11T20:52:07.378Z,14.33
2018-02-11T20:54:34.944Z,13.67
2018-02-11T20:57:04.022Z,14.67
2018-02-11T20:59:32.486Z,13.00
2018-02-11T21:02:00.821Z,12.50
2018-02-11T21:04:29.340Z,14.07
2018-02-11T21:06:56.918Z,13.90
2018-02-11T21:09:24.451Z,12.40
2018-02-11T21:11:52.138Z,13.03
2018-02-11T21:14:19.693Z,12.23
2018-02-11T21:16:47.390Z,14.27
2018-02-11T21:19:15.916Z,11.97
2018-02-11T21:21:43.449Z,11.87
2018-02-11T21:24:10.982Z,11.63
2018-02-11T21:26:38.700Z,12.17
2018-02-11T21:29:06.263Z,12.57
2018-02-11T21:31:34.563Z,12.40
2018-02-11T21:34:02.574Z,12.57
2018-02-11T21:36:30.208Z,11.90
2018-02-11T21:38:57.781Z,13.50
2018-02-11T21:41:25.398Z,12.50
2018-02-11T21:43:52.954Z,11.63
2018-02-11T21:46:20.512Z,11.47
2018-02-11T21:48:48.192Z,10.93
2018-02-11T21:51:15.748Z,11.20
2018-02-11T21:53:43.288Z,11.13
2018-02-11T21:56:11.746Z,10.87
2018-02-11T21:58:39.318Z,10.40
2018-02-11T22:01:07.569Z,9.03
2018-02-11T22:03:35.604Z,9.17
2018-02-11T22:06:03.153Z,9.60
2018-02-11T22:08:31.564Z,9.57
2018-02-11T22:10:59.314Z,9.33
2018-02-11T22:13:26.860Z,12.30
2018-02-11T22:15:54.431Z,9.67
2018-02-11T22:18:22.564Z,8.07
2018-02-11T22:20:50.120Z,6.50
2018-02-11T22:23:17.664Z,6.97
2018-02-11T22:25:45.350Z,6.40
2018-02-11T22:28:12.918Z,6.60
2018-02-11T22:30:40.469Z,5.63
2018-02-11T22:33:08.230Z,5.80
2018-02-11T22:35:36.535Z,5.30
2018-02-11T22:38:04.849Z,4.80
2018-02-11T22:40:32.585Z,4.73
2018-02-11T22:43:00.878Z,4.90
2018-02-11T22:45:28.418Z,5.40
2018-02-11T22:47:56.863Z,4.80
2018-02-11T22:50:24.391Z,5.20
2018-02-11T22:52:51.932Z,5.17
2018-02-11T22:55:19.617Z,5.87
2018-02-11T22:57:47.930Z,5.20
2018-02-11T23:00:15.502Z,6.30
2018-02-11T23:02:43.167Z,6.57
2018-02-11T23:05:11.479Z,6.53
2018-02-11T23:07:39.821Z,7.03
2018-02-11T23:10:07.999Z,7.00
2018-02-11T23:12:35.545Z,7.13
2018-02-11T23:15:03.096Z,6.63
2018-02-11T23:17:30.744Z,7.50
2018-02-11T23:19:58.731Z,7.27
2018-02-11T23:22:27.054Z,7.73
2018-02-11T23:24:55.493Z,8.10
2018-02-11T23:27:23.821Z,8.10
2018-02-11T23:29:52.174Z,8.00
2018-02-11T23:32:19.842Z,7.83
2018-02-11T23:34:47.382Z,8.93
2018-02-11T23:37:14.926Z,7.77
2018-02-11T23:39:42.483Z,8.30
2018-02-11T23:42:10.068Z,8.27
2018-02-11T23:44:37.606Z,8.23
2018-02-11T23:47:05.464Z,8.63
2018-02-11T23:49:33.761Z,9.07
2018-02-11T23:52:01.339Z,8.47
2018-02-11T23:54:28.887Z,8.40
2018-02-11T23:56:56.489Z,8.20
2018-02-11T23:59:24.075Z,8.43
